KEGE/EGE METAR and TAF weather

Enter ICAO airport designator
Station Type Date Time Source
KEGE METAR 2019/06/18 14:56 UTC NOAA

KEGE 181456Z 08003KT 10SM -RA OVC055 12/10 A3023 RMK AO2 SLP207 P0000 60000 T01170100 53006


Station Type Date Time Source
KEGE Decoded METAR 2019/06/18 14:56 UTC NOAA

Eagle County Regional, CO, United States (KEGE) 39-39N 106-55W
Jun 18, 2019 - 10:56 AM EDT / 2019.06.18 1456 UTC
Wind: from the E (080 degrees) at 3 MPH (3 KT):0
Visibility: 10 mile(s):0
Sky conditions: overcast
Weather: light rain
Precipitation last hour: A trace
Temperature: 53.1 F (11.7 C)
Dew Point: 50.0 F (10.0 C)
Relative Humidity: 89%
Pressure (altimeter): 30.23 in. Hg (1023 hPa)
Pressure tendency: 0.02 inches (0.6 hPa) higher than three hours ago
ob: KEGE 181456Z 08003KT 10SM -RA OVC055 12/10 A3023 RMK AO2 SLP207 P0000 60000 T01170100 53006
cycle: 15

Station Type Date Time Source
KEGE TAF 2019/06/18 12:57 UTC NOAA

TAF
AMD KEGE 181155Z 1812/1912 VRB03KT P6SM SCT025 BKN050
TEMPO 1812/1814 -RA BKN005
FM181400 VRB03KT P6SM SCT040 BKN060
FM181900 24010KT P6SM VCTS SCT040CB BKN050
TEMPO 1819/1823 -TSRA
FM190000 24007KT P6SM VCSH FEW040 SCT070
FM190600 VRB03KT P6SM SCT050 BKN060

Example: see airport list